Stephenville, Texas
Current Conditions -  °F | °C
As of 11:55 PM on Saturday 22 Nov 2014 (Local Time) from KSEP Reporting Station
Clear Clear  
Wind Chill: 55°   Ceiling: Unl
Heat Index: 55°   Visibility: 10mi
Dew Point: 52°   Wind: 5mph
Humidity: 91%   Direction: 250°WSW
Pressure: 29.71"   Gusts: NA
Location:  32.22°N, 98.2°W
Report Text: KSEP 230555Z AUTO 25004KT 10SM CLR 13/11 A2971 RMK AO2 P0009 60070 T01250111 10133 20124 401870124
Loading
Personal Weather Stations






























Interactive Weather Map New forecast layout! Learn more

10-Day Weather Forecast

Advertisements
Track Severe Weather on mobile